sensor_id;sensor_type;location;lat;lon;timestamp;temperature;humidity
69747;DHT22;57018;50.278;19.134;2024-02-21T00:02:10;7.60;99.90
69747;DHT22;57018;50.278;19.134;2024-02-21T00:04:40;7.50;99.90
69747;DHT22;57018;50.278;19.134;2024-02-21T00:07:12;7.60;99.90
69747;DHT22;57018;50.278;19.134;2024-02-21T00:09:42;7.60;99.90
69747;DHT22;57018;50.278;19.134;2024-02-21T00:12:12;7.30;99.90
69747;DHT22;57018;50.278;19.134;2024-02-21T00:14:43;7.50;99.90
69747;DHT22;57018;50.278;19.134;2024-02-21T00:17:13;7.40;99.90
69747;DHT22;57018;50.278;19.134;2024-02-21T00:19:42;7.30;99.90
69747;DHT22;57018;50.278;19.134;2024-02-21T00:22:12;7.30;99.90
69747;DHT22;57018;50.278;19.134;2024-02-21T00:24:42;7.30;99.90
69747;DHT22;57018;50.278;19.134;2024-02-21T00:27:12;7.30;99.90
69747;DHT22;57018;50.278;19.134;2024-02-21T00:29:41;7.30;99.90
69747;DHT22;57018;50.278;19.134;2024-02-21T00:32:11;7.30;99.90
69747;DHT22;57018;50.278;19.134;2024-02-21T00:34:41;7.20;99.90
69747;DHT22;57018;50.278;19.134;2024-02-21T00:37:11;7.20;99.90
69747;DHT22;57018;50.278;19.134;2024-02-21T00:39:41;7.40;99.90
69747;DHT22;57018;50.278;19.134;2024-02-21T00:42:11;7.40;99.90
69747;DHT22;57018;50.278;19.134;2024-02-21T00:44:41;7.40;99.90
69747;DHT22;57018;50.278;19.134;2024-02-21T00:47:13;7.50;99.90
69747;DHT22;57018;50.278;19.134;2024-02-21T00:49:43;7.50;99.90
69747;DHT22;57018;50.278;19.134;2024-02-21T00:52:13;7.40;99.90
69747;DHT22;57018;50.278;19.134;2024-02-21T00:54:43;7.60;99.90
69747;DHT22;57018;50.278;19.134;2024-02-21T00:57:13;7.40;99.90
69747;DHT22;57018;50.278;19.134;2024-02-21T00:59:43;7.50;99.90
69747;DHT22;57018;50.278;19.134;2024-02-21T01:02:13;7.60;99.90
69747;DHT22;57018;50.278;19.134;2024-02-21T01:04:43;7.60;99.90
69747;DHT22;57018;50.278;19.134;2024-02-21T01:07:12;7.50;99.90
69747;DHT22;57018;50.278;19.134;2024-02-21T01:09:42;7.50;99.90
69747;DHT22;57018;50.278;19.134;2024-02-21T01:12:12;7.50;99.90
69747;DHT22;57018;50.278;19.134;2024-02-21T01:14:42;7.50;99.90
69747;DHT22;57018;50.278;19.134;2024-02-21T01:17:15;7.30;99.90
69747;DHT22;57018;50.278;19.134;2024-02-21T01:19:47;7.50;99.90
69747;DHT22;57018;50.278;19.134;2024-02-21T01:22:20;7.30;99.90
69747;DHT22;57018;50.278;19.134;2024-02-21T01:24:50;7.40;99.90
69747;DHT22;57018;50.278;19.134;2024-02-21T01:27:20;7.20;99.90
69747;DHT22;57018;50.278;19.134;2024-02-21T01:29:50;7.50;99.90
69747;DHT22;57018;50.278;19.134;2024-02-21T01:32:23;7.30;99.90
69747;DHT22;57018;50.278;19.134;2024-02-21T01:34:53;7.40;99.90
69747;DHT22;57018;50.278;19.134;2024-02-21T01:37:23;7.20;99.90
69747;DHT22;57018;50.278;19.134;2024-02-21T01:39:54;7.50;99.90
69747;DHT22;57018;50.278;19.134;2024-02-21T01:42:24;7.20;99.90
69747;DHT22;57018;50.278;19.134;2024-02-21T01:44:54;7.30;99.90
69747;DHT22;57018;50.278;19.134;2024-02-21T01:47:24;7.20;99.90
69747;DHT22;57018;50.278;19.134;2024-02-21T01:49:55;7.10;99.90
69747;DHT22;57018;50.278;19.134;2024-02-21T01:52:25;7.20;99.90
69747;DHT22;57018;50.278;19.134;2024-02-21T01:54:55;7.30;99.90
69747;DHT22;57018;50.278;19.134;2024-02-21T01:57:28;7.10;99.90
69747;DHT22;57018;50.278;19.134;2024-02-21T01:59:59;7.00;99.90
69747;DHT22;57018;50.278;19.134;2024-02-21T02:02:30;7.00;99.90
69747;DHT22;57018;50.278;19.134;2024-02-21T02:05:00;7.00;99.90
69747;DHT22;57018;50.278;19.134;2024-02-21T02:07:31;7.20;99.90
69747;DHT22;57018;50.278;19.134;2024-02-21T02:10:01;7.20;99.90
69747;DHT22;57018;50.278;19.134;2024-02-21T02:12:34;7.20;99.90
69747;DHT22;57018;50.278;19.134;2024-02-21T02:15:08;7.10;99.90
69747;DHT22;57018;50.278;19.134;2024-02-21T02:17:38;7.10;99.90
69747;DHT22;57018;50.278;19.134;2024-02-21T02:20:09;7.20;99.90
69747;DHT22;57018;50.278;19.134;2024-02-21T02:22:44;7.00;99.90
69747;DHT22;57018;50.278;19.134;2024-02-21T02:25:16;7.20;99.90
69747;DHT22;57018;50.278;19.134;2024-02-21T02:27:46;7.40;99.90
69747;DHT22;57018;50.278;19.134;2024-02-21T02:30:16;7.30;99.90
69747;DHT22;57018;50.278;19.134;2024-02-21T02:32:47;7.50;99.90
69747;DHT22;57018;50.278;19.134;2024-02-21T02:35:19;7.40;99.90
69747;DHT22;57018;50.278;19.134;2024-02-21T02:37:53;7.30;99.90
69747;DHT22;57018;50.278;19.134;2024-02-21T02:40:23;7.30;99.90
69747;DHT22;57018;50.278;19.134;2024-02-21T02:42:55;7.40;99.90
69747;DHT22;57018;50.278;19.134;2024-02-21T02:45:26;7.50;99.90
69747;DHT22;57018;50.278;19.134;2024-02-21T02:47:56;7.10;99.90
69747;DHT22;57018;50.278;19.134;2024-02-21T02:50:27;7.20;99.90
69747;DHT22;57018;50.278;19.134;2024-02-21T02:52:57;7.10;99.90
69747;DHT22;57018;50.278;19.134;2024-02-21T02:55:27;7.10;99.90
69747;DHT22;57018;50.278;19.134;2024-02-21T02:58:00;7.10;99.90
69747;DHT22;57018;50.278;19.134;2024-02-21T03:00:30;6.80;99.90
69747;DHT22;57018;50.278;19.134;2024-02-21T03:03:05;7.20;99.90
69747;DHT22;57018;50.278;19.134;2024-02-21T03:05:37;6.80;99.90
69747;DHT22;57018;50.278;19.134;2024-02-21T03:08:07;7.00;99.90
69747;DHT22;57018;50.278;19.134;2024-02-21T03:10:38;7.10;99.90
69747;DHT22;57018;50.278;19.134;2024-02-21T03:13:08;7.20;99.90
69747;DHT22;57018;50.278;19.134;2024-02-21T03:15:38;7.00;99.90
69747;DHT22;57018;50.278;19.134;2024-02-21T03:18:09;7.00;99.90
69747;DHT22;57018;50.278;19.134;2024-02-21T03:20:42;7.10;99.90
69747;DHT22;57018;50.278;19.134;2024-02-21T03:23:15;6.90;99.90
69747;DHT22;57018;50.278;19.134;2024-02-21T03:25:45;7.10;99.90
69747;DHT22;57018;50.278;19.134;2024-02-21T03:28:15;7.00;99.90
69747;DHT22;57018;50.278;19.134;2024-02-21T03:30:46;7.10;99.90
69747;DHT22;57018;50.278;19.134;2024-02-21T03:33:18;7.20;99.90
69747;DHT22;57018;50.278;19.134;2024-02-21T03:35:49;7.20;99.90
69747;DHT22;57018;50.278;19.134;2024-02-21T03:38:20;7.20;99.90
69747;DHT22;57018;50.278;19.134;2024-02-21T03:40:50;7.00;99.90
69747;DHT22;57018;50.278;19.134;2024-02-21T03:43:23;7.10;99.90
69747;DHT22;57018;50.278;19.134;2024-02-21T03:45:53;7.20;99.90
69747;DHT22;57018;50.278;19.134;2024-02-21T03:48:25;7.20;99.90
69747;DHT22;57018;50.278;19.134;2024-02-21T03:50:55;7.10;99.90
69747;DHT22;57018;50.278;19.134;2024-02-21T03:53:28;7.10;99.90
69747;DHT22;57018;50.278;19.134;2024-02-21T03:56:02;7.20;99.90
69747;DHT22;57018;50.278;19.134;2024-02-21T03:58:33;7.50;99.90
69747;DHT22;57018;50.278;19.134;2024-02-21T04:01:04;7.30;99.90
69747;DHT22;57018;50.278;19.134;2024-02-21T04:03:34;7.40;99.90
69747;DHT22;57018;50.278;19.134;2024-02-21T04:06:05;7.30;99.90
69747;DHT22;57018;50.278;19.134;2024-02-21T04:08:35;7.50;99.90
69747;DHT22;57018;50.278;19.134;2024-02-21T04:11:05;7.50;99.90
69747;DHT22;57018;50.278;19.134;2024-02-21T04:13:35;7.50;99.90
69747;DHT22;57018;50.278;19.134;2024-02-21T04:16:06;7.50;99.90
69747;DHT22;57018;50.278;19.134;2024-02-21T04:18:36;7.40;99.90
69747;DHT22;57018;50.278;19.134;2024-02-21T04:21:07;7.50;99.90
69747;DHT22;57018;50.278;19.134;2024-02-21T04:23:37;7.60;99.90
69747;DHT22;57018;50.278;19.134;2024-02-21T04:26:07;7.40;99.90
69747;DHT22;57018;50.278;19.134;2024-02-21T04:28:37;7.50;99.90
69747;DHT22;57018;50.278;19.134;2024-02-21T04:31:07;7.40;99.90
69747;DHT22;57018;50.278;19.134;2024-02-21T04:33:37;7.20;99.90
69747;DHT22;57018;50.278;19.134;2024-02-21T04:36:08;7.40;99.90
69747;DHT22;57018;50.278;19.134;2024-02-21T04:38:38;7.50;99.90
69747;DHT22;57018;50.278;19.134;2024-02-21T04:41:09;7.60;99.90
69747;DHT22;57018;50.278;19.134;2024-02-21T04:43:40;7.50;99.90
69747;DHT22;57018;50.278;19.134;2024-02-21T04:46:12;7.40;99.90
69747;DHT22;57018;50.278;19.134;2024-02-21T04:48:42;7.40;99.90
69747;DHT22;57018;50.278;19.134;2024-02-21T04:51:13;7.50;99.90
69747;DHT22;57018;50.278;19.134;2024-02-21T04:53:43;7.50;99.90
69747;DHT22;57018;50.278;19.134;2024-02-21T04:56:13;7.50;99.90
69747;DHT22;57018;50.278;19.134;2024-02-21T04:58:43;7.40;99.90
69747;DHT22;57018;50.278;19.134;2024-02-21T05:01:14;7.20;99.90
69747;DHT22;57018;50.278;19.134;2024-02-21T05:03:44;7.20;99.90
69747;DHT22;57018;50.278;19.134;2024-02-21T05:06:14;7.20;99.90
69747;DHT22;57018;50.278;19.134;2024-02-21T05:08:44;7.00;99.90
69747;DHT22;57018;50.278;19.134;2024-02-21T05:11:14;7.30;99.90
69747;DHT22;57018;50.278;19.134;2024-02-21T05:13:45;6.90;99.90
69747;DHT22;57018;50.278;19.134;2024-02-21T05:16:15;6.90;99.90
69747;DHT22;57018;50.278;19.134;2024-02-21T05:18:48;7.00;99.90
69747;DHT22;57018;50.278;19.134;2024-02-21T05:21:19;7.00;99.90
69747;DHT22;57018;50.278;19.134;2024-02-21T05:23:49;6.80;99.90
69747;DHT22;57018;50.278;19.134;2024-02-21T05:26:23;6.70;99.90
69747;DHT22;57018;50.278;19.134;2024-02-21T05:28:53;6.90;99.90
69747;DHT22;57018;50.278;19.134;2024-02-21T05:31:24;6.70;99.90
69747;DHT22;57018;50.278;19.134;2024-02-21T05:33:56;6.80;99.90
69747;DHT22;57018;50.278;19.134;2024-02-21T05:36:29;7.00;99.90
69747;DHT22;57018;50.278;19.134;2024-02-21T05:38:59;6.90;99.90
69747;DHT22;57018;50.278;19.134;2024-02-21T05:41:29;6.90;99.90
69747;DHT22;57018;50.278;19.134;2024-02-21T05:44:05;6.90;99.90
69747;DHT22;57018;50.278;19.134;2024-02-21T05:46:35;6.80;99.90
69747;DHT22;57018;50.278;19.134;2024-02-21T05:49:08;6.80;99.90
69747;DHT22;57018;50.278;19.134;2024-02-21T05:51:43;6.80;99.90
69747;DHT22;57018;50.278;19.134;2024-02-21T05:54:13;6.90;99.90
69747;DHT22;57018;50.278;19.134;2024-02-21T05:56:47;6.90;99.90
69747;DHT22;57018;50.278;19.134;2024-02-21T05:59:20;6.90;99.90
69747;DHT22;57018;50.278;19.134;2024-02-21T06:01:58;7.00;99.90
69747;DHT22;57018;50.278;19.134;2024-02-21T06:04:28;6.90;99.90
69747;DHT22;57018;50.278;19.134;2024-02-21T06:06:58;6.80;99.90
69747;DHT22;57018;50.278;19.134;2024-02-21T06:09:29;7.20;99.90
69747;DHT22;57018;50.278;19.134;2024-02-21T06:12:01;7.20;99.90
69747;DHT22;57018;50.278;19.134;2024-02-21T06:14:34;7.40;99.90
69747;DHT22;57018;50.278;19.134;2024-02-21T06:17:04;7.20;99.90
69747;DHT22;57018;50.278;19.134;2024-02-21T06:19:34;7.50;99.90
69747;DHT22;57018;50.278;19.134;2024-02-21T06:22:07;7.50;99.90
69747;DHT22;57018;50.278;19.134;2024-02-21T06:24:38;7.70;99.90
69747;DHT22;57018;50.278;19.134;2024-02-21T06:27:07;7.70;99.90
69747;DHT22;57018;50.278;19.134;2024-02-21T06:29:38;7.90;99.90
69747;DHT22;57018;50.278;19.134;2024-02-21T06:32:08;7.80;99.90
69747;DHT22;57018;50.278;19.134;2024-02-21T06:34:38;8.00;99.90
69747;DHT22;57018;50.278;19.134;2024-02-21T06:37:11;8.00;99.90
69747;DHT22;57018;50.278;19.134;2024-02-21T06:39:41;8.30;99.90
69747;DHT22;57018;50.278;19.134;2024-02-21T06:42:13;8.50;99.90
69747;DHT22;57018;50.278;19.134;2024-02-21T06:44:45;8.40;99.90
69747;DHT22;57018;50.278;19.134;2024-02-21T06:47:17;8.50;99.90
69747;DHT22;57018;50.278;19.134;2024-02-21T06:49:51;8.50;99.90
69747;DHT22;57018;50.278;19.134;2024-02-21T06:52:21;8.50;99.90
69747;DHT22;57018;50.278;19.134;2024-02-21T06:54:52;8.30;99.90
69747;DHT22;57018;50.278;19.134;2024-02-21T06:57:23;8.40;99.90
69747;DHT22;57018;50.278;19.134;2024-02-21T06:59:53;8.30;99.90
69747;DHT22;57018;50.278;19.134;2024-02-21T07:02:26;8.40;99.90
69747;DHT22;57018;50.278;19.134;2024-02-21T07:04:56;8.40;99.90
69747;DHT22;57018;50.278;19.134;2024-02-21T07:07:26;8.50;99.90
69747;DHT22;57018;50.278;19.134;2024-02-21T07:09:58;8.60;99.90
69747;DHT22;57018;50.278;19.134;2024-02-21T07:12:29;8.60;99.90
69747;DHT22;57018;50.278;19.134;2024-02-21T07:14:59;8.70;99.90
69747;DHT22;57018;50.278;19.134;2024-02-21T07:17:29;8.80;99.90
69747;DHT22;57018;50.278;19.134;2024-02-21T07:19:59;9.00;99.90
69747;DHT22;57018;50.278;19.134;2024-02-21T07:22:32;9.00;99.90
69747;DHT22;57018;50.278;19.134;2024-02-21T07:25:02;9.00;99.90
69747;DHT22;57018;50.278;19.134;2024-02-21T07:27:32;8.90;99.90
69747;DHT22;57018;50.278;19.134;2024-02-21T07:30:04;8.90;99.90
69747;DHT22;57018;50.278;19.134;2024-02-21T07:32:34;8.90;99.90
69747;DHT22;57018;50.278;19.134;2024-02-21T07:35:06;8.90;99.90
69747;DHT22;57018;50.278;19.134;2024-02-21T07:37:39;8.80;99.90
69747;DHT22;57018;50.278;19.134;2024-02-21T07:40:13;8.60;99.90
69747;DHT22;57018;50.278;19.134;2024-02-21T07:42:44;8.70;99.90
69747;DHT22;57018;50.278;19.134;2024-02-21T07:45:17;8.80;99.90
69747;DHT22;57018;50.278;19.134;2024-02-21T07:47:50;8.80;99.90
69747;DHT22;57018;50.278;19.134;2024-02-21T07:50:20;9.00;99.90
69747;DHT22;57018;50.278;19.134;2024-02-21T07:52:51;9.00;99.90
69747;DHT22;57018;50.278;19.134;2024-02-21T07:55:21;9.20;99.90
69747;DHT22;57018;50.278;19.134;2024-02-21T07:57:54;9.50;99.90
69747;DHT22;57018;50.278;19.134;2024-02-21T08:00:24;9.80;99.90
69747;DHT22;57018;50.278;19.134;2024-02-21T08:02:57;10.00;99.90
69747;DHT22;57018;50.278;19.134;2024-02-21T08:05:28;10.10;99.90
69747;DHT22;57018;50.278;19.134;2024-02-21T08:07:59;10.40;99.90
69747;DHT22;57018;50.278;19.134;2024-02-21T08:10:30;10.80;99.90
69747;DHT22;57018;50.278;19.134;2024-02-21T08:13:00;11.10;99.90
69747;DHT22;57018;50.278;19.134;2024-02-21T08:15:35;12.00;99.90
69747;DHT22;57018;50.278;19.134;2024-02-21T08:18:10;13.10;99.90
69747;DHT22;57018;50.278;19.134;2024-02-21T08:20:41;14.60;91.40
69747;DHT22;57018;50.278;19.134;2024-02-21T08:23:11;16.50;80.60
69747;DHT22;57018;50.278;19.134;2024-02-21T08:25:44;18.20;66.50
69747;DHT22;57018;50.278;19.134;2024-02-21T08:28:15;19.90;60.70
69747;DHT22;57018;50.278;19.134;2024-02-21T08:30:45;21.10;52.00
69747;DHT22;57018;50.278;19.134;2024-02-21T08:33:16;21.50;50.20
69747;DHT22;57018;50.278;19.134;2024-02-21T08:35:48;21.70;48.40
69747;DHT22;57018;50.278;19.134;2024-02-21T08:38:18;21.50;47.40
69747;DHT22;57018;50.278;19.134;2024-02-21T08:40:48;21.10;48.10
69747;DHT22;57018;50.278;19.134;2024-02-21T08:43:21;20.60;49.10
69747;DHT22;57018;50.278;19.134;2024-02-21T08:45:54;20.00;50.30
69747;DHT22;57018;50.278;19.134;2024-02-21T08:48:26;19.30;51.10
69747;DHT22;57018;50.278;19.134;2024-02-21T08:50:59;19.00;52.70
69747;DHT22;57018;50.278;19.134;2024-02-21T08:53:30;18.60;53.40
69747;DHT22;57018;50.278;19.134;2024-02-21T08:56:00;18.50;54.50
69747;DHT22;57018;50.278;19.134;2024-02-21T08:58:36;18.30;54.30
69747;DHT22;57018;50.278;19.134;2024-02-21T09:01:07;18.00;56.50
69747;DHT22;57018;50.278;19.134;2024-02-21T09:03:39;18.10;57.60
69747;DHT22;57018;50.278;19.134;2024-02-21T09:06:11;18.10;56.70
69747;DHT22;57018;50.278;19.134;2024-02-21T09:08:43;18.30;55.40
69747;DHT22;57018;50.278;19.134;2024-02-21T09:11:15;18.70;54.10
69747;DHT22;57018;50.278;19.134;2024-02-21T09:13:45;19.00;53.10
69747;DHT22;57018;50.278;19.134;2024-02-21T09:16:16;19.30;52.80
69747;DHT22;57018;50.278;19.134;2024-02-21T09:18:48;19.70;52.00
69747;DHT22;57018;50.278;19.134;2024-02-21T09:21:18;19.80;51.10
69747;DHT22;57018;50.278;19.134;2024-02-21T09:23:48;19.70;50.30
69747;DHT22;57018;50.278;19.134;2024-02-21T09:26:19;19.40;50.30
69747;DHT22;57018;50.278;19.134;2024-02-21T09:28:51;18.80;51.40
69747;DHT22;57018;50.278;19.134;2024-02-21T09:31:22;18.80;52.80
69747;DHT22;57018;50.278;19.134;2024-02-21T09:33:54;19.80;51.70
69747;DHT22;57018;50.278;19.134;2024-02-21T09:36:29;21.50;46.60
69747;DHT22;57018;50.278;19.134;2024-02-21T09:38:59;22.80;42.70
69747;DHT22;57018;50.278;19.134;2024-02-21T09:41:32;23.00;41.30
69747;DHT22;57018;50.278;19.134;2024-02-21T09:44:07;22.50;41.50
69747;DHT22;57018;50.278;19.134;2024-02-21T09:46:46;22.00;42.50
69747;DHT22;57018;50.278;19.134;2024-02-21T09:49:31;21.60;42.80
69747;DHT22;57018;50.278;19.134;2024-02-21T09:52:04;21.00;43.60
69747;DHT22;57018;50.278;19.134;2024-02-21T09:54:36;20.70;45.70
69747;DHT22;57018;50.278;19.134;2024-02-21T09:57:06;20.70;46.30
69747;DHT22;57018;50.278;19.134;2024-02-21T09:59:39;20.90;44.70
69747;DHT22;57018;50.278;19.134;2024-02-21T10:02:12;20.90;43.90
69747;DHT22;57018;50.278;19.134;2024-02-21T10:04:43;20.80;45.90
69747;DHT22;57018;50.278;19.134;2024-02-21T10:07:14;20.50;46.20
69747;DHT22;57018;50.278;19.134;2024-02-21T10:09:44;20.30;47.00
69747;DHT22;57018;50.278;19.134;2024-02-21T10:12:16;20.30;46.90
69747;DHT22;57018;50.278;19.134;2024-02-21T10:14:50;20.30;46.80
69747;DHT22;57018;50.278;19.134;2024-02-21T10:17:29;20.80;44.80
69747;DHT22;57018;50.278;19.134;2024-02-21T10:20:09;20.50;45.00
69747;DHT22;57018;50.278;19.134;2024-02-21T10:22:40;19.70;46.40
69747;DHT22;57018;50.278;19.134;2024-02-21T10:25:11;18.80;48.20
69747;DHT22;57018;50.278;19.134;2024-02-21T10:27:42;18.00;51.90
69747;DHT22;57018;50.278;19.134;2024-02-21T10:30:15;17.40;53.70
69747;DHT22;57018;50.278;19.134;2024-02-21T10:32:55;16.90;55.70
69747;DHT22;57018;50.278;19.134;2024-02-21T10:35:30;16.40;58.20
69747;DHT22;57018;50.278;19.134;2024-02-21T10:38:03;16.00;60.80
69747;DHT22;57018;50.278;19.134;2024-02-21T10:40:34;15.90;60.80
69747;DHT22;57018;50.278;19.134;2024-02-21T10:43:05;15.80;61.00
69747;DHT22;57018;50.278;19.134;2024-02-21T10:45:36;15.80;61.30
69747;DHT22;57018;50.278;19.134;2024-02-21T10:48:13;15.90;62.00
69747;DHT22;57018;50.278;19.134;2024-02-21T10:50:52;15.90;61.80
69747;DHT22;57018;50.278;19.134;2024-02-21T10:53:33;16.00;62.30
69747;DHT22;57018;50.278;19.134;2024-02-21T10:56:14;16.20;61.30
69747;DHT22;57018;50.278;19.134;2024-02-21T10:58:46;16.30;60.20
69747;DHT22;57018;50.278;19.134;2024-02-21T11:01:18;16.20;59.00
69747;DHT22;57018;50.278;19.134;2024-02-21T11:03:55;16.00;58.00
69747;DHT22;57018;50.278;19.134;2024-02-21T11:06:28;15.80;58.70
69747;DHT22;57018;50.278;19.134;2024-02-21T11:09:06;15.50;60.00
69747;DHT22;57018;50.278;19.134;2024-02-21T11:11:37;15.30;62.70
69747;DHT22;57018;50.278;19.134;2024-02-21T11:14:09;15.10;64.30
69747;DHT22;57018;50.278;19.134;2024-02-21T11:16:40;15.10;64.80
69747;DHT22;57018;50.278;19.134;2024-02-21T11:19:21;15.00;64.70
69747;DHT22;57018;50.278;19.134;2024-02-21T11:21:55;15.00;64.00
69747;DHT22;57018;50.278;19.134;2024-02-21T11:24:30;14.80;65.10
69747;DHT22;57018;50.278;19.134;2024-02-21T11:27:13;14.70;63.90
69747;DHT22;57018;50.278;19.134;2024-02-21T11:29:44;14.60;64.20
69747;DHT22;57018;50.278;19.134;2024-02-21T11:32:16;14.60;64.00
69747;DHT22;57018;50.278;19.134;2024-02-21T11:34:56;14.50;64.40
69747;DHT22;57018;50.278;19.134;2024-02-21T11:37:34;14.40;64.90
69747;DHT22;57018;50.278;19.134;2024-02-21T11:40:07;14.30;65.60
69747;DHT22;57018;50.278;19.134;2024-02-21T11:42:38;14.30;66.50
69747;DHT22;57018;50.278;19.134;2024-02-21T11:45:10;14.30;67.20
69747;DHT22;57018;50.278;19.134;2024-02-21T11:47:42;14.20;67.60
69747;DHT22;57018;50.278;19.134;2024-02-21T11:50:13;14.20;67.80
69747;DHT22;57018;50.278;19.134;2024-02-21T11:52:43;14.00;68.90
69747;DHT22;57018;50.278;19.134;2024-02-21T11:55:14;13.90;68.90
69747;DHT22;57018;50.278;19.134;2024-02-21T11:57:44;13.90;69.80
69747;DHT22;57018;50.278;19.134;2024-02-21T12:00:20;13.80;70.20
69747;DHT22;57018;50.278;19.134;2024-02-21T12:02:53;13.50;70.70
69747;DHT22;57018;50.278;19.134;2024-02-21T12:05:25;13.30;71.90
69747;DHT22;57018;50.278;19.134;2024-02-21T12:07:57;12.90;73.40
69747;DHT22;57018;50.278;19.134;2024-02-21T12:10:28;12.80;76.30
69747;DHT22;57018;50.278;19.134;2024-02-21T12:13:08;12.70;78.80
69747;DHT22;57018;50.278;19.134;2024-02-21T12:15:41;12.50;80.50
69747;DHT22;57018;50.278;19.134;2024-02-21T12:18:13;12.30;81.80
69747;DHT22;57018;50.278;19.134;2024-02-21T12:20:49;12.10;83.20
69747;DHT22;57018;50.278;19.134;2024-02-21T12:23:21;12.10;86.00
69747;DHT22;57018;50.278;19.134;2024-02-21T12:25:52;12.10;87.80
69747;DHT22;57018;50.278;19.134;2024-02-21T12:28:25;12.10;90.40
69747;DHT22;57018;50.278;19.134;2024-02-21T12:30:58;12.10;92.10
69747;DHT22;57018;50.278;19.134;2024-02-21T12:33:29;12.20;94.20
69747;DHT22;57018;50.278;19.134;2024-02-21T12:36:02;12.20;95.20
69747;DHT22;57018;50.278;19.134;2024-02-21T12:38:32;12.20;96.10
69747;DHT22;57018;50.278;19.134;2024-02-21T12:41:05;12.10;98.80
69747;DHT22;57018;50.278;19.134;2024-02-21T12:43:38;12.10;98.90
69747;DHT22;57018;50.278;19.134;2024-02-21T12:46:13;12.10;99.90
69747;DHT22;57018;50.278;19.134;2024-02-21T12:48:44;12.10;99.90
69747;DHT22;57018;50.278;19.134;2024-02-21T12:51:14;12.00;99.90
69747;DHT22;57018;50.278;19.134;2024-02-21T12:53:44;11.90;99.90
69747;DHT22;57018;50.278;19.134;2024-02-21T12:56:17;11.90;99.90
69747;DHT22;57018;50.278;19.134;2024-02-21T12:58:47;11.90;99.90
69747;DHT22;57018;50.278;19.134;2024-02-21T13:01:18;11.90;99.90
69747;DHT22;57018;50.278;19.134;2024-02-21T13:03:48;11.80;99.90
69747;DHT22;57018;50.278;19.134;2024-02-21T13:06:21;11.70;99.90
69747;DHT22;57018;50.278;19.134;2024-02-21T13:08:52;11.60;99.90
69747;DHT22;57018;50.278;19.134;2024-02-21T13:11:25;11.60;99.90
69747;DHT22;57018;50.278;19.134;2024-02-21T13:13:59;11.50;99.90
69747;DHT22;57018;50.278;19.134;2024-02-21T13:16:29;11.50;99.90
69747;DHT22;57018;50.278;19.134;2024-02-21T13:19:00;11.40;99.90
69747;DHT22;57018;50.278;19.134;2024-02-21T13:21:32;11.30;99.90
69747;DHT22;57018;50.278;19.134;2024-02-21T13:24:05;11.40;99.90
69747;DHT22;57018;50.278;19.134;2024-02-21T13:26:38;11.40;99.90
69747;DHT22;57018;50.278;19.134;2024-02-21T13:29:09;11.30;99.90
69747;DHT22;57018;50.278;19.134;2024-02-21T13:31:39;11.30;99.90
69747;DHT22;57018;50.278;19.134;2024-02-21T13:34:10;11.40;99.90
69747;DHT22;57018;50.278;19.134;2024-02-21T13:36:42;11.50;99.90
69747;DHT22;57018;50.278;19.134;2024-02-21T13:39:12;11.60;99.90
69747;DHT22;57018;50.278;19.134;2024-02-21T13:41:44;11.60;99.90
69747;DHT22;57018;50.278;19.134;2024-02-21T13:44:15;11.50;99.90
69747;DHT22;57018;50.278;19.134;2024-02-21T13:46:45;11.60;99.90
69747;DHT22;57018;50.278;19.134;2024-02-21T13:49:18;11.50;99.90
69747;DHT22;57018;50.278;19.134;2024-02-21T13:51:48;11.50;99.90
69747;DHT22;57018;50.278;19.134;2024-02-21T13:54:20;11.40;99.90
69747;DHT22;57018;50.278;19.134;2024-02-21T13:56:51;11.40;99.90
69747;DHT22;57018;50.278;19.134;2024-02-21T13:59:21;11.30;99.90
69747;DHT22;57018;50.278;19.134;2024-02-21T14:01:54;11.10;99.90
69747;DHT22;57018;50.278;19.134;2024-02-21T14:04:24;11.00;99.90
69747;DHT22;57018;50.278;19.134;2024-02-21T14:06:54;11.00;99.90
69747;DHT22;57018;50.278;19.134;2024-02-21T14:09:24;10.90;99.90
69747;DHT22;57018;50.278;19.134;2024-02-21T14:11:55;10.80;99.90
69747;DHT22;57018;50.278;19.134;2024-02-21T14:14:26;10.80;99.90
69747;DHT22;57018;50.278;19.134;2024-02-21T14:16:56;10.60;99.90
69747;DHT22;57018;50.278;19.134;2024-02-21T14:19:29;10.70;99.90
69747;DHT22;57018;50.278;19.134;2024-02-21T14:21:59;10.70;99.90
69747;DHT22;57018;50.278;19.134;2024-02-21T14:24:33;10.70;99.90
69747;DHT22;57018;50.278;19.134;2024-02-21T14:27:04;10.70;99.90
69747;DHT22;57018;50.278;19.134;2024-02-21T14:29:34;10.70;99.90
69747;DHT22;57018;50.278;19.134;2024-02-21T14:32:06;10.80;99.90
69747;DHT22;57018;50.278;19.134;2024-02-21T14:34:44;10.80;99.90
69747;DHT22;57018;50.278;19.134;2024-02-21T14:37:14;10.80;99.90
69747;DHT22;57018;50.278;19.134;2024-02-21T14:39:47;10.70;99.90
69747;DHT22;57018;50.278;19.134;2024-02-21T14:42:17;10.50;99.90
69747;DHT22;57018;50.278;19.134;2024-02-21T14:44:50;10.50;99.90
69747;DHT22;57018;50.278;19.134;2024-02-21T14:47:22;10.30;99.90
69747;DHT22;57018;50.278;19.134;2024-02-21T14:49:55;10.10;99.90
69747;DHT22;57018;50.278;19.134;2024-02-21T14:52:29;9.90;99.90
69747;DHT22;57018;50.278;19.134;2024-02-21T14:55:00;9.80;99.90
69747;DHT22;57018;50.278;19.134;2024-02-21T14:57:31;9.70;99.90
69747;DHT22;57018;50.278;19.134;2024-02-21T15:00:01;9.60;99.90
69747;DHT22;57018;50.278;19.134;2024-02-21T15:02:36;9.60;99.90
69747;DHT22;57018;50.278;19.134;2024-02-21T15:05:14;9.30;99.90
69747;DHT22;57018;50.278;19.134;2024-02-21T15:07:44;9.50;99.90
69747;DHT22;57018;50.278;19.134;2024-02-21T15:10:20;9.30;99.90
69747;DHT22;57018;50.278;19.134;2024-02-21T15:12:53;9.50;99.90
69747;DHT22;57018;50.278;19.134;2024-02-21T15:15:23;9.50;99.90
69747;DHT22;57018;50.278;19.134;2024-02-21T15:17:55;9.70;99.90
69747;DHT22;57018;50.278;19.134;2024-02-21T15:20:28;9.70;99.90
69747;DHT22;57018;50.278;19.134;2024-02-21T15:23:00;9.60;99.90
69747;DHT22;57018;50.278;19.134;2024-02-21T15:25:33;9.60;99.90
69747;DHT22;57018;50.278;19.134;2024-02-21T15:28:05;9.80;99.90
69747;DHT22;57018;50.278;19.134;2024-02-21T15:30:35;9.70;99.90
69747;DHT22;57018;50.278;19.134;2024-02-21T15:33:05;9.70;99.90
69747;DHT22;57018;50.278;19.134;2024-02-21T15:35:38;9.60;99.90
69747;DHT22;57018;50.278;19.134;2024-02-21T15:38:10;9.60;99.90
69747;DHT22;57018;50.278;19.134;2024-02-21T15:40:40;9.60;99.90
69747;DHT22;57018;50.278;19.134;2024-02-21T15:43:11;9.70;99.90
69747;DHT22;57018;50.278;19.134;2024-02-21T15:45:41;9.60;99.90
69747;DHT22;57018;50.278;19.134;2024-02-21T15:48:14;9.70;99.90
69747;DHT22;57018;50.278;19.134;2024-02-21T15:50:44;9.60;99.90
69747;DHT22;57018;50.278;19.134;2024-02-21T15:53:15;9.60;99.90